sensor_id;sensor_type;location;lat;lon;timestamp;temperature;humidity
48162;DHT22;33950;48.154;16.316;2023-05-07T00:00:17;16.50;99.90
48162;DHT22;33950;48.154;16.316;2023-05-07T00:03:06;15.90;99.90
48162;DHT22;33950;48.154;16.316;2023-05-07T00:05:52;15.60;99.90
48162;DHT22;33950;48.154;16.316;2023-05-07T00:08:41;16.40;99.90
48162;DHT22;33950;48.154;16.316;2023-05-07T00:11:27;16.70;99.90
48162;DHT22;33950;48.154;16.316;2023-05-07T00:14:14;17.00;99.90
48162;DHT22;33950;48.154;16.316;2023-05-07T00:17:00;16.40;99.90
48162;DHT22;33950;48.154;16.316;2023-05-07T00:19:47;16.30;99.90
48162;DHT22;33950;48.154;16.316;2023-05-07T00:22:33;15.20;99.90
48162;DHT22;33950;48.154;16.316;2023-05-07T00:25:20;15.90;99.90
48162;DHT22;33950;48.154;16.316;2023-05-07T00:28:06;16.50;99.90
48162;DHT22;33950;48.154;16.316;2023-05-07T00:30:52;15.80;99.90
48162;DHT22;33950;48.154;16.316;2023-05-07T00:33:38;15.60;99.90
48162;DHT22;33950;48.154;16.316;2023-05-07T00:36:26;15.40;99.90
48162;DHT22;33950;48.154;16.316;2023-05-07T00:41:58;15.50;99.90
48162;DHT22;33950;48.154;16.316;2023-05-07T00:44:47;15.40;99.90
48162;DHT22;33950;48.154;16.316;2023-05-07T00:47:36;15.40;99.90
48162;DHT22;33950;48.154;16.316;2023-05-07T00:50:22;15.50;99.90
48162;DHT22;33950;48.154;16.316;2023-05-07T00:53:10;16.30;99.90
48162;DHT22;33950;48.154;16.316;2023-05-07T00:55:56;16.30;99.90
48162;DHT22;33950;48.154;16.316;2023-05-07T01:07:02;15.30;99.90
48162;DHT22;33950;48.154;16.316;2023-05-07T01:09:50;15.20;99.90
48162;DHT22;33950;48.154;16.316;2023-05-07T01:12:37;15.80;99.90
48162;DHT22;33950;48.154;16.316;2023-05-07T01:15:24;15.80;99.90
48162;DHT22;33950;48.154;16.316;2023-05-07T01:20:58;15.00;99.90
48162;DHT22;33950;48.154;16.316;2023-05-07T01:23:47;15.10;99.90
48162;DHT22;33950;48.154;16.316;2023-05-07T01:26:33;14.80;99.90
48162;DHT22;33950;48.154;16.316;2023-05-07T01:32:06;15.30;99.90
48162;DHT22;33950;48.154;16.316;2023-05-07T01:37:40;15.30;99.90
48162;DHT22;33950;48.154;16.316;2023-05-07T01:51:35;15.20;99.90
48162;DHT22;33950;48.154;16.316;2023-05-07T02:16:42;15.10;99.90
48162;DHT22;33950;48.154;16.316;2023-05-07T02:19:28;15.10;99.90
48162;DHT22;33950;48.154;16.316;2023-05-07T02:22:14;15.00;99.90
48162;DHT22;33950;48.154;16.316;2023-05-07T02:25:01;15.00;99.90
48162;DHT22;33950;48.154;16.316;2023-05-07T02:27:47;14.90;99.90
48162;DHT22;33950;48.154;16.316;2023-05-07T02:30:35;14.80;99.90
48162;DHT22;33950;48.154;16.316;2023-05-07T02:33:21;14.80;99.90
48162;DHT22;33950;48.154;16.316;2023-05-07T02:36:08;14.80;99.90
48162;DHT22;33950;48.154;16.316;2023-05-07T02:38:54;14.70;99.90
48162;DHT22;33950;48.154;16.316;2023-05-07T02:41:40;14.70;99.90
48162;DHT22;33950;48.154;16.316;2023-05-07T02:44:26;14.70;99.90
48162;DHT22;33950;48.154;16.316;2023-05-07T02:47:15;14.60;99.90
48162;DHT22;33950;48.154;16.316;2023-05-07T02:50:01;14.70;99.90
48162;DHT22;33950;48.154;16.316;2023-05-07T02:52:47;14.70;99.90
48162;DHT22;33950;48.154;16.316;2023-05-07T02:55:33;14.60;99.90
48162;DHT22;33950;48.154;16.316;2023-05-07T02:58:20;14.70;99.90
48162;DHT22;33950;48.154;16.316;2023-05-07T03:01:06;14.70;99.90
48162;DHT22;33950;48.154;16.316;2023-05-07T03:03:54;14.60;99.90
48162;DHT22;33950;48.154;16.316;2023-05-07T03:06:40;14.60;99.90
48162;DHT22;33950;48.154;16.316;2023-05-07T03:09:34;14.60;99.90
48162;DHT22;33950;48.154;16.316;2023-05-07T03:12:20;14.50;99.90
48162;DHT22;33950;48.154;16.316;2023-05-07T03:15:07;14.60;99.90
48162;DHT22;33950;48.154;16.316;2023-05-07T03:17:54;14.60;99.90
48162;DHT22;33950;48.154;16.316;2023-05-07T03:20:41;14.60;99.90
48162;DHT22;33950;48.154;16.316;2023-05-07T03:23:27;14.60;99.90
48162;DHT22;33950;48.154;16.316;2023-05-07T03:26:13;14.60;99.90
48162;DHT22;33950;48.154;16.316;2023-05-07T03:28:59;14.60;99.90
48162;DHT22;33950;48.154;16.316;2023-05-07T03:31:46;14.60;99.90
48162;DHT22;33950;48.154;16.316;2023-05-07T03:34:32;14.60;99.90
48162;DHT22;33950;48.154;16.316;2023-05-07T03:37:19;14.60;99.90
48162;DHT22;33950;48.154;16.316;2023-05-07T03:40:06;14.60;99.90
48162;DHT22;33950;48.154;16.316;2023-05-07T03:42:53;14.60;99.90
48162;DHT22;33950;48.154;16.316;2023-05-07T03:45:40;14.60;99.90
48162;DHT22;33950;48.154;16.316;2023-05-07T03:48:26;14.50;99.90
48162;DHT22;33950;48.154;16.316;2023-05-07T03:51:12;14.50;99.90
48162;DHT22;33950;48.154;16.316;2023-05-07T03:53:59;14.50;99.90
48162;DHT22;33950;48.154;16.316;2023-05-07T03:56:45;14.60;99.90
48162;DHT22;33950;48.154;16.316;2023-05-07T03:59:32;14.60;99.90
48162;DHT22;33950;48.154;16.316;2023-05-07T04:02:18;14.60;99.90
48162;DHT22;33950;48.154;16.316;2023-05-07T04:05:04;14.60;99.90
48162;DHT22;33950;48.154;16.316;2023-05-07T04:07:50;14.50;99.90
48162;DHT22;33950;48.154;16.316;2023-05-07T04:10:38;14.50;99.90
48162;DHT22;33950;48.154;16.316;2023-05-07T04:13:24;14.50;99.90
48162;DHT22;33950;48.154;16.316;2023-05-07T04:16:11;14.40;99.90
48162;DHT22;33950;48.154;16.316;2023-05-07T04:18:57;14.40;99.90
48162;DHT22;33950;48.154;16.316;2023-05-07T04:21:43;14.40;99.90
48162;DHT22;33950;48.154;16.316;2023-05-07T04:24:31;14.40;99.90
48162;DHT22;33950;48.154;16.316;2023-05-07T04:27:19;14.40;99.90
48162;DHT22;33950;48.154;16.316;2023-05-07T04:30:07;14.40;99.90
48162;DHT22;33950;48.154;16.316;2023-05-07T04:32:55;14.50;99.90
48162;DHT22;33950;48.154;16.316;2023-05-07T04:35:41;14.50;99.90
48162;DHT22;33950;48.154;16.316;2023-05-07T04:38:28;14.50;99.90
48162;DHT22;33950;48.154;16.316;2023-05-07T04:41:14;14.50;99.90
48162;DHT22;33950;48.154;16.316;2023-05-07T04:44:02;14.50;99.90
48162;DHT22;33950;48.154;16.316;2023-05-07T04:46:49;15.30;99.90
48162;DHT22;33950;48.154;16.316;2023-05-07T04:49:35;14.80;99.90
48162;DHT22;33950;48.154;16.316;2023-05-07T04:52:21;14.90;99.90
48162;DHT22;33950;48.154;16.316;2023-05-07T04:55:08;15.10;99.90
48162;DHT22;33950;48.154;16.316;2023-05-07T04:57:54;15.10;99.90
48162;DHT22;33950;48.154;16.316;2023-05-07T05:00:42;15.20;99.90
48162;DHT22;33950;48.154;16.316;2023-05-07T05:03:29;15.30;99.90
48162;DHT22;33950;48.154;16.316;2023-05-07T05:06:15;15.40;99.90
48162;DHT22;33950;48.154;16.316;2023-05-07T05:09:02;15.40;99.90
48162;DHT22;33950;48.154;16.316;2023-05-07T05:11:48;15.40;99.90
48162;DHT22;33950;48.154;16.316;2023-05-07T05:14:34;15.50;99.90
48162;DHT22;33950;48.154;16.316;2023-05-07T05:17:21;15.40;99.90
48162;DHT22;33950;48.154;16.316;2023-05-07T05:20:08;15.40;99.90
48162;DHT22;33950;48.154;16.316;2023-05-07T05:22:56;15.40;99.90
48162;DHT22;33950;48.154;16.316;2023-05-07T05:25:42;15.40;99.90
48162;DHT22;33950;48.154;16.316;2023-05-07T05:28:28;15.50;99.90
48162;DHT22;33950;48.154;16.316;2023-05-07T05:31:15;15.40;99.90
48162;DHT22;33950;48.154;16.316;2023-05-07T05:34:03;15.60;99.90
48162;DHT22;33950;48.154;16.316;2023-05-07T05:36:49;15.70;99.90
48162;DHT22;33950;48.154;16.316;2023-05-07T05:39:36;15.90;99.90
48162;DHT22;33950;48.154;16.316;2023-05-07T05:42:22;15.90;99.90
48162;DHT22;33950;48.154;16.316;2023-05-07T05:45:09;15.90;99.90
48162;DHT22;33950;48.154;16.316;2023-05-07T05:47:56;15.90;99.90
48162;DHT22;33950;48.154;16.316;2023-05-07T05:50:43;15.80;99.90
48162;DHT22;33950;48.154;16.316;2023-05-07T05:53:31;15.90;99.90
48162;DHT22;33950;48.154;16.316;2023-05-07T05:56:17;15.80;99.90
48162;DHT22;33950;48.154;16.316;2023-05-07T05:59:03;15.80;99.90
48162;DHT22;33950;48.154;16.316;2023-05-07T06:01:49;15.70;99.90
48162;DHT22;33950;48.154;16.316;2023-05-07T06:04:35;15.80;99.90
48162;DHT22;33950;48.154;16.316;2023-05-07T06:07:26;15.80;99.90
48162;DHT22;33950;48.154;16.316;2023-05-07T06:10:15;15.80;99.90
48162;DHT22;33950;48.154;16.316;2023-05-07T06:13:01;15.80;99.90
48162;DHT22;33950;48.154;16.316;2023-05-07T06:15:56;15.90;99.90
48162;DHT22;33950;48.154;16.316;2023-05-07T06:18:48;15.90;99.90
48162;DHT22;33950;48.154;16.316;2023-05-07T06:21:34;16.10;99.90
48162;DHT22;33950;48.154;16.316;2023-05-07T06:24:26;16.10;99.90
48162;DHT22;33950;48.154;16.316;2023-05-07T06:27:18;16.20;99.90
48162;DHT22;33950;48.154;16.316;2023-05-07T06:30:08;16.10;99.90
48162;DHT22;33950;48.154;16.316;2023-05-07T06:32:54;16.10;99.90
48162;DHT22;33950;48.154;16.316;2023-05-07T06:35:43;16.00;99.90
48162;DHT22;33950;48.154;16.316;2023-05-07T06:38:35;16.00;99.90
48162;DHT22;33950;48.154;16.316;2023-05-07T06:41:25;16.00;99.90
48162;DHT22;33950;48.154;16.316;2023-05-07T06:44:11;16.00;99.90
48162;DHT22;33950;48.154;16.316;2023-05-07T06:46:57;16.00;99.90
48162;DHT22;33950;48.154;16.316;2023-05-07T06:49:52;16.00;99.90
48162;DHT22;33950;48.154;16.316;2023-05-07T06:52:52;16.00;99.90
48162;DHT22;33950;48.154;16.316;2023-05-07T06:55:48;16.60;99.90
48162;DHT22;33950;48.154;16.316;2023-05-07T06:58:38;16.10;99.90
48162;DHT22;33950;48.154;16.316;2023-05-07T07:01:25;15.80;99.90
48162;DHT22;33950;48.154;16.316;2023-05-07T07:04:11;16.20;99.90
48162;DHT22;33950;48.154;16.316;2023-05-07T07:06:57;16.40;99.90
48162;DHT22;33950;48.154;16.316;2023-05-07T07:09:46;16.50;99.90
48162;DHT22;33950;48.154;16.316;2023-05-07T07:12:32;16.50;99.90
48162;DHT22;33950;48.154;16.316;2023-05-07T07:15:32;16.60;99.90
48162;DHT22;33950;48.154;16.316;2023-05-07T07:18:31;16.60;99.90
48162;DHT22;33950;48.154;16.316;2023-05-07T07:21:17;16.70;99.90
48162;DHT22;33950;48.154;16.316;2023-05-07T07:24:04;16.70;99.90
48162;DHT22;33950;48.154;16.316;2023-05-07T07:26:50;16.90;99.90
48162;DHT22;33950;48.154;16.316;2023-05-07T07:29:36;17.00;99.90
48162;DHT22;33950;48.154;16.316;2023-05-07T07:32:23;17.10;99.90
48162;DHT22;33950;48.154;16.316;2023-05-07T07:35:10;17.30;99.80
48162;DHT22;33950;48.154;16.316;2023-05-07T07:37:56;17.30;99.30
48162;DHT22;33950;48.154;16.316;2023-05-07T07:40:42;17.40;99.00
48162;DHT22;33950;48.154;16.316;2023-05-07T07:43:29;17.40;99.10
48162;DHT22;33950;48.154;16.316;2023-05-07T07:46:15;17.50;98.80
48162;DHT22;33950;48.154;16.316;2023-05-07T07:49:03;17.70;98.70
48162;DHT22;33950;48.154;16.316;2023-05-07T07:51:51;17.70;97.90
48162;DHT22;33950;48.154;16.316;2023-05-07T07:54:37;17.80;97.60
48162;DHT22;33950;48.154;16.316;2023-05-07T07:57:26;17.70;97.50
48162;DHT22;33950;48.154;16.316;2023-05-07T08:00:13;17.80;97.90
48162;DHT22;33950;48.154;16.316;2023-05-07T08:02:59;17.90;97.50
48162;DHT22;33950;48.154;16.316;2023-05-07T08:05:47;18.00;97.30
48162;DHT22;33950;48.154;16.316;2023-05-07T08:08:35;18.10;97.30
48162;DHT22;33950;48.154;16.316;2023-05-07T08:11:21;18.20;96.90
48162;DHT22;33950;48.154;16.316;2023-05-07T08:14:07;18.20;96.30
48162;DHT22;33950;48.154;16.316;2023-05-07T08:16:54;18.20;95.90
48162;DHT22;33950;48.154;16.316;2023-05-07T08:19:40;18.20;96.10
48162;DHT22;33950;48.154;16.316;2023-05-07T08:22:27;18.20;95.80
48162;DHT22;33950;48.154;16.316;2023-05-07T08:25:13;18.30;95.20
48162;DHT22;33950;48.154;16.316;2023-05-07T08:27:59;18.30;95.50
48162;DHT22;33950;48.154;16.316;2023-05-07T08:30:45;18.40;95.00
48162;DHT22;33950;48.154;16.316;2023-05-07T08:33:32;18.40;94.10
48162;DHT22;33950;48.154;16.316;2023-05-07T08:36:18;18.40;94.30
48162;DHT22;33950;48.154;16.316;2023-05-07T08:39:06;18.30;94.80
48162;DHT22;33950;48.154;16.316;2023-05-07T08:41:55;18.20;95.40
48162;DHT22;33950;48.154;16.316;2023-05-07T08:44:45;18.50;94.90
48162;DHT22;33950;48.154;16.316;2023-05-07T08:47:38;18.70;95.40
48162;DHT22;33950;48.154;16.316;2023-05-07T08:50:25;18.80;94.70
48162;DHT22;33950;48.154;16.316;2023-05-07T08:53:12;18.90;94.10
48162;DHT22;33950;48.154;16.316;2023-05-07T08:59:45;18.90;93.20
48162;DHT22;33950;48.154;16.316;2023-05-07T09:02:31;18.90;93.40
48162;DHT22;33950;48.154;16.316;2023-05-07T09:05:17;19.00;93.40
48162;DHT22;33950;48.154;16.316;2023-05-07T09:08:13;19.00;93.50
48162;DHT22;33950;48.154;16.316;2023-05-07T09:11:29;19.00;93.50
48162;DHT22;33950;48.154;16.316;2023-05-07T09:14:15;19.10;94.30
48162;DHT22;33950;48.154;16.316;2023-05-07T09:17:03;19.30;94.20
48162;DHT22;33950;48.154;16.316;2023-05-07T09:23:51;19.40;93.10
48162;DHT22;33950;48.154;16.316;2023-05-07T09:27:06;19.30;92.90
48162;DHT22;33950;48.154;16.316;2023-05-07T09:30:06;19.30;93.10
48162;DHT22;33950;48.154;16.316;2023-05-07T09:32:54;19.30;92.70
48162;DHT22;33950;48.154;16.316;2023-05-07T09:35:40;19.20;92.30
48162;DHT22;33950;48.154;16.316;2023-05-07T09:38:34;19.00;92.60
48162;DHT22;33950;48.154;16.316;2023-05-07T09:41:21;18.90;93.30
48162;DHT22;33950;48.154;16.316;2023-05-07T09:44:11;18.90;93.60
48162;DHT22;33950;48.154;16.316;2023-05-07T09:47:04;18.90;93.40
48162;DHT22;33950;48.154;16.316;2023-05-07T09:49:56;18.80;93.20
48162;DHT22;33950;48.154;16.316;2023-05-07T09:52:44;18.80;93.00
48162;DHT22;33950;48.154;16.316;2023-05-07T09:55:30;18.80;93.00
48162;DHT22;33950;48.154;16.316;2023-05-07T09:58:18;18.80;92.90
48162;DHT22;33950;48.154;16.316;2023-05-07T10:01:05;18.90;92.90
48162;DHT22;33950;48.154;16.316;2023-05-07T10:03:52;18.90;93.20
48162;DHT22;33950;48.154;16.316;2023-05-07T10:06:41;19.00;93.20
48162;DHT22;33950;48.154;16.316;2023-05-07T10:09:28;19.00;93.00
48162;DHT22;33950;48.154;16.316;2023-05-07T10:12:14;19.10;92.90
48162;DHT22;33950;48.154;16.316;2023-05-07T10:15:01;19.20;93.40
48162;DHT22;33950;48.154;16.316;2023-05-07T10:17:48;19.30;93.20
48162;DHT22;33950;48.154;16.316;2023-05-07T10:20:36;19.40;92.90
48162;DHT22;33950;48.154;16.316;2023-05-07T10:23:24;19.50;92.20
48162;DHT22;33950;48.154;16.316;2023-05-07T10:26:13;19.60;92.70
48162;DHT22;33950;48.154;16.316;2023-05-07T10:29:05;19.80;92.50
48162;DHT22;33950;48.154;16.316;2023-05-07T10:31:58;20.00;92.50
48162;DHT22;33950;48.154;16.316;2023-05-07T10:34:48;20.20;92.10
48162;DHT22;33950;48.154;16.316;2023-05-07T10:37:37;20.70;92.10
48162;DHT22;33950;48.154;16.316;2023-05-07T10:40:25;21.50;90.90
48162;DHT22;33950;48.154;16.316;2023-05-07T10:43:11;21.80;89.70
48162;DHT22;33950;48.154;16.316;2023-05-07T10:46:10;21.50;89.10
48162;DHT22;33950;48.154;16.316;2023-05-07T10:49:09;21.20;90.50
48162;DHT22;33950;48.154;16.316;2023-05-07T10:52:13;22.00;90.10
48162;DHT22;33950;48.154;16.316;2023-05-07T10:55:20;22.30;89.10
48162;DHT22;33950;48.154;16.316;2023-05-07T10:58:25;22.60;87.30
48162;DHT22;33950;48.154;16.316;2023-05-07T11:01:12;22.10;88.40
48162;DHT22;33950;48.154;16.316;2023-05-07T11:04:15;22.30;87.40
48162;DHT22;33950;48.154;16.316;2023-05-07T11:07:25;22.70;86.20
48162;DHT22;33950;48.154;16.316;2023-05-07T11:10:11;23.00;86.40
48162;DHT22;33950;48.154;16.316;2023-05-07T11:12:58;23.10;87.10
48162;DHT22;33950;48.154;16.316;2023-05-07T11:15:46;22.90;86.30
48162;DHT22;33950;48.154;16.316;2023-05-07T11:18:46;23.50;86.80
48162;DHT22;33950;48.154;16.316;2023-05-07T11:21:37;24.20;84.20
48162;DHT22;33950;48.154;16.316;2023-05-07T11:24:24;23.90;84.40
48162;DHT22;33950;48.154;16.316;2023-05-07T11:27:10;23.80;84.20
48162;DHT22;33950;48.154;16.316;2023-05-07T11:29:57;24.30;83.00
48162;DHT22;33950;48.154;16.316;2023-05-07T11:32:47;24.70;81.20
48162;DHT22;33950;48.154;16.316;2023-05-07T11:35:34;24.70;82.50
48162;DHT22;33950;48.154;16.316;2023-05-07T11:38:20;25.30;83.40
48162;DHT22;33950;48.154;16.316;2023-05-07T11:41:07;25.60;81.90
48162;DHT22;33950;48.154;16.316;2023-05-07T11:43:55;25.10;81.30
48162;DHT22;33950;48.154;16.316;2023-05-07T11:46:43;24.60;81.80
48162;DHT22;33950;48.154;16.316;2023-05-07T11:49:31;24.20;81.60
48162;DHT22;33950;48.154;16.316;2023-05-07T11:52:20;24.10;82.10
48162;DHT22;33950;48.154;16.316;2023-05-07T11:55:07;24.70;81.70
48162;DHT22;33950;48.154;16.316;2023-05-07T11:57:53;24.90;80.90
48162;DHT22;33950;48.154;16.316;2023-05-07T12:00:49;25.10;80.10
48162;DHT22;33950;48.154;16.316;2023-05-07T12:03:36;25.10;78.20
48162;DHT22;33950;48.154;16.316;2023-05-07T12:06:24;24.80;78.70
48162;DHT22;33950;48.154;16.316;2023-05-07T12:09:11;25.10;78.60
48162;DHT22;33950;48.154;16.316;2023-05-07T12:12:03;25.60;79.00
48162;DHT22;33950;48.154;16.316;2023-05-07T12:14:49;25.70;78.40
48162;DHT22;33950;48.154;16.316;2023-05-07T12:17:36;25.60;78.40
48162;DHT22;33950;48.154;16.316;2023-05-07T12:20:22;25.20;77.70
48162;DHT22;33950;48.154;16.316;2023-05-07T12:23:12;24.80;78.20
48162;DHT22;33950;48.154;16.316;2023-05-07T12:25:59;25.10;79.30
48162;DHT22;33950;48.154;16.316;2023-05-07T12:28:46;25.50;78.20
48162;DHT22;33950;48.154;16.316;2023-05-07T12:31:34;25.40;77.40
48162;DHT22;33950;48.154;16.316;2023-05-07T12:34:20;25.20;77.00
48162;DHT22;33950;48.154;16.316;2023-05-07T12:37:08;24.90;77.30
48162;DHT22;33950;48.154;16.316;2023-05-07T12:40:09;24.50;76.90
48162;DHT22;33950;48.154;16.316;2023-05-07T12:42:59;24.00;78.30
48162;DHT22;33950;48.154;16.316;2023-05-07T12:45:46;23.70;79.60
48162;DHT22;33950;48.154;16.316;2023-05-07T12:48:33;23.50;78.40
48162;DHT22;33950;48.154;16.316;2023-05-07T12:51:19;23.40;78.40
48162;DHT22;33950;48.154;16.316;2023-05-07T12:54:05;23.00;78.20
48162;DHT22;33950;48.154;16.316;2023-05-07T12:57:00;22.80;78.40
48162;DHT22;33950;48.154;16.316;2023-05-07T12:59:46;23.00;80.60
48162;DHT22;33950;48.154;16.316;2023-05-07T13:02:33;23.20;80.00
48162;DHT22;33950;48.154;16.316;2023-05-07T13:05:20;23.50;79.80
48162;DHT22;33950;48.154;16.316;2023-05-07T13:08:06;23.90;79.50
48162;DHT22;33950;48.154;16.316;2023-05-07T13:10:53;24.40;80.10
48162;DHT22;33950;48.154;16.316;2023-05-07T13:13:41;24.90;79.90
48162;DHT22;33950;48.154;16.316;2023-05-07T13:16:27;24.60;78.60
48162;DHT22;33950;48.154;16.316;2023-05-07T13:19:13;24.70;79.40
48162;DHT22;33950;48.154;16.316;2023-05-07T13:21:59;24.90;78.30
48162;DHT22;33950;48.154;16.316;2023-05-07T13:24:45;25.10;78.90
48162;DHT22;33950;48.154;16.316;2023-05-07T13:27:32;25.10;77.80
48162;DHT22;33950;48.154;16.316;2023-05-07T13:30:22;25.00;77.30
48162;DHT22;33950;48.154;16.316;2023-05-07T13:33:09;24.10;74.60
48162;DHT22;33950;48.154;16.316;2023-05-07T13:35:55;23.40;77.60
48162;DHT22;33950;48.154;16.316;2023-05-07T13:38:42;23.10;77.20
48162;DHT22;33950;48.154;16.316;2023-05-07T13:41:29;22.70;77.60
48162;DHT22;33950;48.154;16.316;2023-05-07T13:44:15;22.60;78.50
48162;DHT22;33950;48.154;16.316;2023-05-07T13:47:03;22.70;79.20
48162;DHT22;33950;48.154;16.316;2023-05-07T13:49:49;22.90;79.60
48162;DHT22;33950;48.154;16.316;2023-05-07T13:52:38;23.20;76.50
48162;DHT22;33950;48.154;16.316;2023-05-07T13:55:28;22.70;79.20
48162;DHT22;33950;48.154;16.316;2023-05-07T13:58:15;22.90;79.70
48162;DHT22;33950;48.154;16.316;2023-05-07T14:01:01;23.10;79.50
48162;DHT22;33950;48.154;16.316;2023-05-07T14:03:48;23.20;79.40
48162;DHT22;33950;48.154;16.316;2023-05-07T14:06:34;23.20;80.20
48162;DHT22;33950;48.154;16.316;2023-05-07T14:09:20;23.30;79.50
48162;DHT22;33950;48.154;16.316;2023-05-07T14:12:07;23.40;79.10
48162;DHT22;33950;48.154;16.316;2023-05-07T14:14:53;23.20;76.80
48162;DHT22;33950;48.154;16.316;2023-05-07T14:17:39;22.80;75.90
48162;DHT22;33950;48.154;16.316;2023-05-07T14:20:27;22.20;76.10
48162;DHT22;33950;48.154;16.316;2023-05-07T14:23:13;22.00;76.80
48162;DHT22;33950;48.154;16.316;2023-05-07T14:25:59;22.00;76.90
48162;DHT22;33950;48.154;16.316;2023-05-07T14:28:45;22.10;77.90
48162;DHT22;33950;48.154;16.316;2023-05-07T14:31:32;22.20;78.40
48162;DHT22;33950;48.154;16.316;2023-05-07T14:34:19;22.30;78.70
48162;DHT22;33950;48.154;16.316;2023-05-07T14:37:06;22.60;79.00
48162;DHT22;33950;48.154;16.316;2023-05-07T14:39:52;22.80;78.80
48162;DHT22;33950;48.154;16.316;2023-05-07T14:42:38;22.50;77.00
48162;DHT22;33950;48.154;16.316;2023-05-07T14:45:25;22.20;76.90
48162;DHT22;33950;48.154;16.316;2023-05-07T14:48:11;21.80;76.20
48162;DHT22;33950;48.154;16.316;2023-05-07T14:51:00;21.70;77.90
48162;DHT22;33950;48.154;16.316;2023-05-07T14:53:48;21.80;78.60
48162;DHT22;33950;48.154;16.316;2023-05-07T14:56:35;22.00;79.10
48162;DHT22;33950;48.154;16.316;2023-05-07T14:59:21;22.00;78.50
48162;DHT22;33950;48.154;16.316;2023-05-07T15:02:08;22.10;78.60
48162;DHT22;33950;48.154;16.316;2023-05-07T15:04:54;22.10;78.50
48162;DHT22;33950;48.154;16.316;2023-05-07T15:07:40;22.10;79.00
48162;DHT22;33950;48.154;16.316;2023-05-07T15:10:28;22.00;78.40
48162;DHT22;33950;48.154;16.316;2023-05-07T15:13:14;22.00;78.90
48162;DHT22;33950;48.154;16.316;2023-05-07T15:16:00;22.00;78.90
48162;DHT22;33950;48.154;16.316;2023-05-07T15:18:46;22.00;78.60
48162;DHT22;33950;48.154;16.316;2023-05-07T15:21:32;22.00;78.80
48162;DHT22;33950;48.154;16.316;2023-05-07T15:24:20;21.90;79.10
48162;DHT22;33950;48.154;16.316;2023-05-07T15:27:07;21.90;78.80
48162;DHT22;33950;48.154;16.316;2023-05-07T15:29:54;21.90;78.60
48162;DHT22;33950;48.154;16.316;2023-05-07T15:32:40;21.90;78.70
48162;DHT22;33950;48.154;16.316;2023-05-07T15:35:26;21.90;78.80
48162;DHT22;33950;48.154;16.316;2023-05-07T15:38:13;21.90;79.10
48162;DHT22;33950;48.154;16.316;2023-05-07T15:41:02;21.80;78.70
48162;DHT22;33950;48.154;16.316;2023-05-07T15:43:51;21.90;78.50
48162;DHT22;33950;48.154;16.316;2023-05-07T15:46:37;21.90;78.70
48162;DHT22;33950;48.154;16.316;2023-05-07T15:49:24;21.90;78.10
48162;DHT22;33950;48.154;16.316;2023-05-07T15:52:10;22.00;78.30
48162;DHT22;33950;48.154;16.316;2023-05-07T15:54:57;22.00;78.50
48162;DHT22;33950;48.154;16.316;2023-05-07T15:57:43;22.00;77.80
48162;DHT22;33950;48.154;16.316;2023-05-07T16:00:31;21.90;77.80
48162;DHT22;33950;48.154;16.316;2023-05-07T16:03:17;21.80;77.80
48162;DHT22;33950;48.154;16.316;2023-05-07T16:06:04;21.90;78.30
48162;DHT22;33950;48.154;16.316;2023-05-07T16:08:51;22.00;78.70
48162;DHT22;33950;48.154;16.316;2023-05-07T16:11:38;22.00;77.50
48162;DHT22;33950;48.154;16.316;2023-05-07T16:14:29;22.00;77.70
48162;DHT22;33950;48.154;16.316;2023-05-07T16:17:17;22.20;77.50
48162;DHT22;33950;48.154;16.316;2023-05-07T16:20:03;22.30;77.10
48162;DHT22;33950;48.154;16.316;2023-05-07T16:22:51;22.40;77.10
48162;DHT22;33950;48.154;16.316;2023-05-07T16:25:37;22.50;77.10
48162;DHT22;33950;48.154;16.316;2023-05-07T16:28:23;22.50;75.60
48162;DHT22;33950;48.154;16.316;2023-05-07T16:31:09;22.40;76.20
48162;DHT22;33950;48.154;16.316;2023-05-07T16:33:57;22.20;75.60
48162;DHT22;33950;48.154;16.316;2023-05-07T16:36:44;21.90;75.70
48162;DHT22;33950;48.154;16.316;2023-05-07T16:39:30;21.70;75.60
48162;DHT22;33950;48.154;16.316;2023-05-07T16:42:16;21.60;75.70
48162;DHT22;33950;48.154;16.316;2023-05-07T16:45:03;21.40;76.00
48162;DHT22;33950;48.154;16.316;2023-05-07T16:47:49;21.20;76.10
48162;DHT22;33950;48.154;16.316;2023-05-07T16:50:36;21.00;76.00
48162;DHT22;33950;48.154;16.316;2023-05-07T16:53:23;20.90;76.40
48162;DHT22;33950;48.154;16.316;2023-05-07T16:56:09;20.80;76.50
48162;DHT22;33950;48.154;16.316;2023-05-07T16:58:55;20.70;76.50
48162;DHT22;33950;48.154;16.316;2023-05-07T17:01:41;20.50;75.60
48162;DHT22;33950;48.154;16.316;2023-05-07T17:04:27;20.20;76.50
48162;DHT22;33950;48.154;16.316;2023-05-07T17:07:16;20.10;77.00
48162;DHT22;33950;48.154;16.316;2023-05-07T17:10:02;20.00;77.10
48162;DHT22;33950;48.154;16.316;2023-05-07T17:12:50;20.00;77.10
48162;DHT22;33950;48.154;16.316;2023-05-07T17:15:36;20.00;76.80
48162;DHT22;33950;48.154;16.316;2023-05-07T17:18:22;19.80;77.10
48162;DHT22;33950;48.154;16.316;2023-05-07T17:21:09;19.80;77.40
48162;DHT22;33950;48.154;16.316;2023-05-07T17:23:56;19.70;77.20
48162;DHT22;33950;48.154;16.316;2023-05-07T17:26:42;19.70;77.10
48162;DHT22;33950;48.154;16.316;2023-05-07T17:29:32;19.60;77.00
48162;DHT22;33950;48.154;16.316;2023-05-07T17:32:18;19.40;77.00
48162;DHT22;33950;48.154;16.316;2023-05-07T17:35:04;19.40;77.10
48162;DHT22;33950;48.154;16.316;2023-05-07T17:37:51;19.20;77.30
48162;DHT22;33950;48.154;16.316;2023-05-07T17:40:38;19.10;77.60
48162;DHT22;33950;48.154;16.316;2023-05-07T17:43:25;19.10;78.00
48162;DHT22;33950;48.154;16.316;2023-05-07T17:46:11;19.10;77.60
48162;DHT22;33950;48.154;16.316;2023-05-07T17:48:57;18.90;77.80
48162;DHT22;33950;48.154;16.316;2023-05-07T17:51:46;18.80;77.90
48162;DHT22;33950;48.154;16.316;2023-05-07T17:54:33;18.80;77.90
48162;DHT22;33950;48.154;16.316;2023-05-07T17:57:21;18.60;77.10
48162;DHT22;33950;48.154;16.316;2023-05-07T18:00:08;18.30;77.90
48162;DHT22;33950;48.154;16.316;2023-05-07T18:03:03;18.20;78.20
48162;DHT22;33950;48.154;16.316;2023-05-07T18:05:52;18.10;78.40
48162;DHT22;33950;48.154;16.316;2023-05-07T18:08:38;18.00;78.00
48162;DHT22;33950;48.154;16.316;2023-05-07T18:11:30;17.90;78.10
48162;DHT22;33950;48.154;16.316;2023-05-07T18:14:23;17.80;77.80
48162;DHT22;33950;48.154;16.316;2023-05-07T18:17:10;17.80;78.30
48162;DHT22;33950;48.154;16.316;2023-05-07T18:20:03;17.80;78.20
48162;DHT22;33950;48.154;16.316;2023-05-07T18:23:01;17.70;78.20